West Roxbury, MA (02132)

2:24 PM EDT on September 02, 2015 (GMT -0400)
Roslindale (Rosecliff) | | Change Station
CLOSE
Current Station
Personal Weather Station
Location: Roslindale, MA
Elevation: 157 ft
Nearby Weather Stations

Elev 157 ft 42.28 °N, 71.13 °W | Updated 5 seconds ago

Clear
Clear
87.4 °F
Feels Like 88 °F
N
0.0
Wind Variable Wind from WNW
Gusts 0.0 mph

Today
High -- | Low -- °F
--% Chance of Precip.
Yesterday
High -- | Low -- °F
Precip. -- in
6:10 AM 7:17 PM
Waning Gibbous, 78% visible
Pressure 29.92 in
Visibility 10.0 miles
Clouds Clear
Heat Index 88 °F
Dew Point 64 °F
Humidity 45%
Rainfall 0.00 in
Snow Depth Not available.
UV 2.0 out of 12
Pollen 10.40 out of 12
Air Quality Not available.
Flu Activity Not available.
METAR KOWD 021753Z 20008KT 10SM CLR 31/18 A2992 RMK AO2 SLP130 T03060183 10311 20194 58022
Pressure 29.92 in
Visibility 10.0 miles
Clouds Clear
Heat Index 88 °F
Dew Point 64 °F
Humidity 45%
Rainfall 0.00 in
Snow Depth Not available.
UV 2.0 out of 12
Pollen 10.40 out of 12
Air Quality Not available.
Flu Activity Not available.
METAR KOWD 021753Z 20008KT 10SM CLR 31/18 A2992 RMK AO2 SLP130 T03060183 10311 20194 58022

10-Day Weather Forecast

×

Almanac

Astronomy

Sep. 02, 2015 Rise Set
Actual Time
Civil Twilight
Nautical Twilight
Astronomical Twilight
Moon
Length of Visible Light
Length of Day
Tomorrow will be .
, % of the Moon is Illuminated

Today's Extremes

State Highs State Lows

Community

WunderPhotos

Upload Photos

1,851,791 photos uploaded!

WunderBlogs® & News

Nearby

Air Quality

  Air Quality AQ Index Pollutant
Not available.

Snow Depth

Station Depth Elevation

Earthquake Activity

City Distance Mag. Time & Date
Minimum magnitude displayed is 2.5.

Coastal Water Temperatures

Place Temperature

Stations

Nearby Weather Stations

Station Location Temp. Windchill Dew Point Humidity Wind Precip. Elev Updated Type